Etusivu
METAR-TAF:

METAR-TAF

Lentoasemat :

Kimble County Airport

Junction, Texas, Yhdysvallat

Leveyspiiri: 30-30-39N, Pituuspiiri: 099-45-59W, korkeus merenpinnasta: 527 m

Tämänhetkinen sää

Tämä raportti tehtiin 4 tuntia ja 57 minuuttia sitten, kello 18.51 UTC
Tuuli 5 kn etelästä
Lämpötila 32°C
Kosteus 52%
Ilmanpaine 1018 hPa
Näkyvyys: 16.1 km
selkeää

METAR: KJCT 171851Z AUTO 18005KT 10SM CLR 32/21 A3006 RMK AO2 SLP139 T03220211

Aika: 18:48 (23:48 UTC)

Sääennuste

Tämä raportti tehtiin 6 tuntia ja 28 minuuttia sitten, kello 17.20 UTC
Ennuste voimassa 17. päivästä klo 18 UTC - 18. päivään klo 18 UTC
Tuuli 5 kn eri suunnista
Näkyvyys: 10 km
Hajanaisia pilviä 24000 ft:n korkeudessa
From 18. päivästä klo 1200 UTC
Tuuli kn pohjoisesta
Näkyvyys: 10 km
Hajonneita pilviä 20000 ft:n korkeudessa

TAF: KJCT 171720Z 1718/1818 VRB05KT P6SM SCT240 FM181200 00000KT P6SM BKN200

Säähavainnot ja -ennusteet yli 4000 lentoasemalta (METAR- ja TAF-raportit).

Käytössä olevat sääasemat on merkitty karttaan keltaisilla ja punaisilla pisteillä.

Aseta hiiri pisteen päälle nähdäksesi sääaseman nimen.

Klikkaa sitten nähdäksesi säähavainnot ja -ennusteet.

Kartan vaihtaminen: klikkaa mustalla rastilla varustettuja vihreitä pisteitä, niin voit zoomata sisään; viivalla varustettua vihreää pistettä, niin voit zoomata ulos tai vihreitä nuolia, niin pääset viereisille kartoille.


METAR-TAF: